Point Hope, AK

03:59 PM AKDT del 21 Ottobre 2014 (GMT -0800)
Red Dog Mine | Change Station
CLOSE
Current Station
Aeroporto
Location: Red Dog Mine,
Altitudine: 968 ft
Stazioni meteo nelle vicinanze

Alt. 968 ft 68.03 °N, 162.90 °W | Updated 3 hours ago

Partly Cloudy
Parzialmente nuvoloso
23 °F
Sembra 11 °F
N
14
Vento Variabile Vento da NNE
Gusts 24 mph

Oggi
Massima -- | Minima -- °F
--% Possibilità di precip.
Ieri
Massima -- | Minima -- °F
Precip. -- in
10:34 AM 6:59 PM
Luna calante, 4% visible
Pressione 29.60 in
Visibilità 15.0 miglia
Nuvole Alcuni 5000 ft
Raffreddamento del vento 11 °F
Punto di rugiada 12 °F
Umidità 63%
Piovosità 0.00 in
Spessore del manto nevoso Non disponibile.
Raggi UV 0 fuori da 12
Polline Non disponibile.
Qualità dell'aria Non disponibile.
Flu Activity Sporadic
SPECI PADG 212000Z 02012G21KT 15SM FEW050 M05/M11 A2960

More Conditions Fewer Conditions

Pressione 29.60 in
Visibilità 15.0 miglia
Nuvole Alcuni 5000 ft
Raffreddamento del vento 11 °F
Punto di rugiada 12 °F
Umidità 63%
Piovosità 0.00 in
Spessore del manto nevoso Non disponibile.
Raggi UV 0 fuori da 12
Polline Non disponibile.
Qualità dell'aria Non disponibile.
Flu Activity Sporadic
SPECI PADG 212000Z 02012G21KT 15SM FEW050 M05/M11 A2960

More Conditions Fewer Conditions

10-Day Weather Forecast

Almanac

Astronomia

Oct. 21, 2014 Alba Tramonto
Ora attuale 10:34 AKDT 18:59 AKDT
Crepuscolo civile 09:33 AKDT 20:00 AKDT
Crepuscolo nautico 08:26 AKDT 21:06 AKDT
Crepuscolo astronomico 07:19 AKDT 22:13 AKDT
Luna 07:33 AKDT 18:46 AKDT
Estensione della luce visibile 10h 27m
Lunghezza del giorno
8h 25m
Tomorrow will be 8m 21s shorter.
Luna calante, 4% of the Moon is Illuminated
Oggi
Luna calante
Ott 23
Nuovo
Ott 30
Primo quarto
Nov 6
Luna piena
Nov 14
Ultimo quarto

Gli estremi di oggi

State Highs State Lows

Community

WunderPhotos

Upload Photos

1,763,821 foto caricate!

Nearby

Qualità dell'aria

Not available.

Profondità neve

Stazione Profondità Altitudine
Rocky Point 3 in 500 ft
Coldfoot 4 in 1040 ft
Gobblers Knob 1 in 2030 ft
Imnaviat Creek 20 in 3050 ft
Atigun Pass 14 in 4800 ft

Attività sismica

Città  Distanza Mag. Data & Ora
Non sono state riportate attività sismiche nelle vicinanze.
Minimo Magnitudo Mostrato è 2.5.

Temperature delle acque costiere

Località Temperatura
Nessun dato dalle stazioni

Stazioni meteo nelle vicinanze